sensor_id;sensor_type;location;lat;lon;timestamp;P1;durP1;ratioP1;P2;durP2;ratioP2
20124;SDS011;10223;50.862;4.360;2023-07-02T00:01:46;32.33;;;13.87;;
20124;SDS011;10223;50.862;4.360;2023-07-02T00:04:14;31.00;;;13.80;;
20124;SDS011;10223;50.862;4.360;2023-07-02T00:06:42;31.93;;;14.23;;
20124;SDS011;10223;50.862;4.360;2023-07-02T00:09:09;36.60;;;15.38;;
20124;SDS011;10223;50.862;4.360;2023-07-02T00:11:37;30.13;;;15.30;;
20124;SDS011;10223;50.862;4.360;2023-07-02T00:14:04;33.13;;;14.60;;
20124;SDS011;10223;50.862;4.360;2023-07-02T00:16:33;33.70;;;15.43;;
20124;SDS011;10223;50.862;4.360;2023-07-02T00:19:01;36.80;;;14.53;;
20124;SDS011;10223;50.862;4.360;2023-07-02T00:21:28;34.47;;;15.10;;
20124;SDS011;10223;50.862;4.360;2023-07-02T00:23:58;33.77;;;14.87;;
20124;SDS011;10223;50.862;4.360;2023-07-02T00:26:25;36.77;;;15.57;;
20124;SDS011;10223;50.862;4.360;2023-07-02T00:28:52;36.23;;;15.27;;
20124;SDS011;10223;50.862;4.360;2023-07-02T00:31:20;40.60;;;16.27;;
20124;SDS011;10223;50.862;4.360;2023-07-02T00:33:49;37.10;;;15.63;;
20124;SDS011;10223;50.862;4.360;2023-07-02T00:36:16;35.60;;;15.07;;
20124;SDS011;10223;50.862;4.360;2023-07-02T00:38:44;38.50;;;16.50;;
20124;SDS011;10223;50.862;4.360;2023-07-02T00:41:11;38.27;;;15.77;;
20124;SDS011;10223;50.862;4.360;2023-07-02T00:43:39;32.30;;;15.97;;
20124;SDS011;10223;50.862;4.360;2023-07-02T00:46:08;33.87;;;16.50;;
20124;SDS011;10223;50.862;4.360;2023-07-02T00:48:38;39.03;;;17.90;;
20124;SDS011;10223;50.862;4.360;2023-07-02T00:51:07;34.07;;;15.50;;
20124;SDS011;10223;50.862;4.360;2023-07-02T00:53:34;33.40;;;15.90;;
20124;SDS011;10223;50.862;4.360;2023-07-02T00:56:01;40.33;;;16.73;;
20124;SDS011;10223;50.862;4.360;2023-07-02T00:58:28;41.40;;;15.90;;
20124;SDS011;10223;50.862;4.360;2023-07-02T01:00:56;41.23;;;17.80;;
20124;SDS011;10223;50.862;4.360;2023-07-02T01:03:24;46.00;;;18.47;;
20124;SDS011;10223;50.862;4.360;2023-07-02T01:05:51;33.13;;;16.87;;
20124;SDS011;10223;50.862;4.360;2023-07-02T01:08:19;41.97;;;17.97;;
20124;SDS011;10223;50.862;4.360;2023-07-02T01:10:46;39.13;;;18.80;;
20124;SDS011;10223;50.862;4.360;2023-07-02T01:13:14;35.20;;;17.65;;
20124;SDS011;10223;50.862;4.360;2023-07-02T01:15:45;37.10;;;17.70;;
20124;SDS011;10223;50.862;4.360;2023-07-02T01:18:13;42.90;;;17.70;;
20124;SDS011;10223;50.862;4.360;2023-07-02T01:20:42;35.50;;;17.93;;
20124;SDS011;10223;50.862;4.360;2023-07-02T01:23:09;40.40;;;17.73;;
20124;SDS011;10223;50.862;4.360;2023-07-02T01:25:37;44.27;;;17.97;;
20124;SDS011;10223;50.862;4.360;2023-07-02T01:28:04;39.58;;;17.85;;
20124;SDS011;10223;50.862;4.360;2023-07-02T01:30:31;39.87;;;18.40;;
20124;SDS011;10223;50.862;4.360;2023-07-02T01:32:58;37.93;;;18.50;;
20124;SDS011;10223;50.862;4.360;2023-07-02T01:35:24;41.93;;;17.63;;
20124;SDS011;10223;50.862;4.360;2023-07-02T01:37:53;47.43;;;18.83;;
20124;SDS011;10223;50.862;4.360;2023-07-02T01:40:20;45.15;;;18.65;;
20124;SDS011;10223;50.862;4.360;2023-07-02T01:42:47;41.72;;;18.27;;
20124;SDS011;10223;50.862;4.360;2023-07-02T01:45:14;33.22;;;18.08;;
20124;SDS011;10223;50.862;4.360;2023-07-02T01:47:41;34.13;;;17.77;;
20124;SDS011;10223;50.862;4.360;2023-07-02T01:50:08;40.97;;;18.60;;
20124;SDS011;10223;50.862;4.360;2023-07-02T01:52:35;43.10;;;18.17;;
20124;SDS011;10223;50.862;4.360;2023-07-02T01:55:04;44.47;;;18.57;;
20124;SDS011;10223;50.862;4.360;2023-07-02T01:57:31;44.33;;;18.55;;
20124;SDS011;10223;50.862;4.360;2023-07-02T01:59:58;46.88;;;19.35;;
20124;SDS011;10223;50.862;4.360;2023-07-02T02:02:25;43.40;;;19.50;;
20124;SDS011;10223;50.862;4.360;2023-07-02T02:04:52;40.75;;;19.20;;
20124;SDS011;10223;50.862;4.360;2023-07-02T02:07:18;45.03;;;19.60;;
20124;SDS011;10223;50.862;4.360;2023-07-02T02:09:45;40.80;;;19.33;;
20124;SDS011;10223;50.862;4.360;2023-07-02T02:12:14;47.03;;;19.77;;
20124;SDS011;10223;50.862;4.360;2023-07-02T02:14:40;44.13;;;19.57;;
20124;SDS011;10223;50.862;4.360;2023-07-02T02:17:07;49.43;;;19.43;;
20124;SDS011;10223;50.862;4.360;2023-07-02T02:19:34;49.43;;;20.07;;
20124;SDS011;10223;50.862;4.360;2023-07-02T02:22:01;46.87;;;19.63;;
20124;SDS011;10223;50.862;4.360;2023-07-02T02:24:28;42.90;;;19.73;;
20124;SDS011;10223;50.862;4.360;2023-07-02T02:26:55;46.80;;;20.23;;
20124;SDS011;10223;50.862;4.360;2023-07-02T02:29:23;47.70;;;20.07;;
20124;SDS011;10223;50.862;4.360;2023-07-02T02:31:50;46.90;;;20.13;;
20124;SDS011;10223;50.862;4.360;2023-07-02T02:34:17;42.70;;;20.37;;
20124;SDS011;10223;50.862;4.360;2023-07-02T02:36:44;50.00;;;20.13;;
20124;SDS011;10223;50.862;4.360;2023-07-02T02:39:11;51.27;;;19.77;;
20124;SDS011;10223;50.862;4.360;2023-07-02T02:41:39;57.00;;;21.30;;
20124;SDS011;10223;50.862;4.360;2023-07-02T02:44:06;48.97;;;20.90;;
20124;SDS011;10223;50.862;4.360;2023-07-02T02:46:34;50.47;;;19.93;;
20124;SDS011;10223;50.862;4.360;2023-07-02T02:49:01;48.30;;;19.43;;
20124;SDS011;10223;50.862;4.360;2023-07-02T02:51:28;51.27;;;21.37;;
20124;SDS011;10223;50.862;4.360;2023-07-02T02:53:54;50.80;;;21.77;;
20124;SDS011;10223;50.862;4.360;2023-07-02T02:56:21;51.07;;;19.87;;
20124;SDS011;10223;50.862;4.360;2023-07-02T02:58:49;53.43;;;21.47;;
20124;SDS011;10223;50.862;4.360;2023-07-02T03:01:16;50.17;;;20.03;;
20124;SDS011;10223;50.862;4.360;2023-07-02T03:03:44;53.60;;;20.93;;
20124;SDS011;10223;50.862;4.360;2023-07-02T03:06:11;50.47;;;21.17;;
20124;SDS011;10223;50.862;4.360;2023-07-02T03:08:39;52.13;;;21.17;;
20124;SDS011;10223;50.862;4.360;2023-07-02T03:11:06;53.23;;;20.97;;
20124;SDS011;10223;50.862;4.360;2023-07-02T03:13:33;47.13;;;20.10;;
20124;SDS011;10223;50.862;4.360;2023-07-02T03:16:00;51.20;;;22.80;;
20124;SDS011;10223;50.862;4.360;2023-07-02T03:18:27;45.07;;;21.77;;
20124;SDS011;10223;50.862;4.360;2023-07-02T03:20:55;50.87;;;20.07;;
20124;SDS011;10223;50.862;4.360;2023-07-02T03:23:22;56.73;;;21.40;;
20124;SDS011;10223;50.862;4.360;2023-07-02T03:25:49;54.67;;;21.50;;
20124;SDS011;10223;50.862;4.360;2023-07-02T03:28:15;53.73;;;22.67;;
20124;SDS011;10223;50.862;4.360;2023-07-02T03:30:42;55.93;;;22.23;;
20124;SDS011;10223;50.862;4.360;2023-07-02T03:33:09;48.80;;;21.73;;
20124;SDS011;10223;50.862;4.360;2023-07-02T03:35:36;58.03;;;22.93;;
20124;SDS011;10223;50.862;4.360;2023-07-02T03:38:04;59.03;;;23.27;;
20124;SDS011;10223;50.862;4.360;2023-07-02T03:40:32;61.40;;;23.13;;
20124;SDS011;10223;50.862;4.360;2023-07-02T03:42:58;61.07;;;23.73;;
20124;SDS011;10223;50.862;4.360;2023-07-02T03:45:25;55.30;;;22.50;;
20124;SDS011;10223;50.862;4.360;2023-07-02T03:47:52;63.40;;;25.13;;
20124;SDS011;10223;50.862;4.360;2023-07-02T03:50:19;56.43;;;23.30;;
20124;SDS011;10223;50.862;4.360;2023-07-02T03:52:46;58.30;;;23.07;;
20124;SDS011;10223;50.862;4.360;2023-07-02T03:55:14;49.20;;;22.43;;
20124;SDS011;10223;50.862;4.360;2023-07-02T03:57:41;65.60;;;26.00;;
20124;SDS011;10223;50.862;4.360;2023-07-02T04:00:08;50.47;;;23.80;;
20124;SDS011;10223;50.862;4.360;2023-07-02T04:02:36;59.83;;;24.00;;
20124;SDS011;10223;50.862;4.360;2023-07-02T04:05:03;65.23;;;23.57;;
20124;SDS011;10223;50.862;4.360;2023-07-02T04:07:31;57.73;;;23.40;;
20124;SDS011;10223;50.862;4.360;2023-07-02T04:09:58;63.03;;;25.63;;
20124;SDS011;10223;50.862;4.360;2023-07-02T04:12:26;59.00;;;23.20;;
20124;SDS011;10223;50.862;4.360;2023-07-02T04:14:53;64.97;;;23.87;;
20124;SDS011;10223;50.862;4.360;2023-07-02T04:17:20;70.47;;;24.67;;
20124;SDS011;10223;50.862;4.360;2023-07-02T04:19:47;59.67;;;25.87;;
20124;SDS011;10223;50.862;4.360;2023-07-02T04:22:14;54.03;;;23.33;;
20124;SDS011;10223;50.862;4.360;2023-07-02T04:24:43;71.00;;;25.83;;
20124;SDS011;10223;50.862;4.360;2023-07-02T04:27:10;68.13;;;26.40;;
20124;SDS011;10223;50.862;4.360;2023-07-02T04:29:40;57.67;;;25.73;;
20124;SDS011;10223;50.862;4.360;2023-07-02T04:32:07;64.17;;;26.60;;
20124;SDS011;10223;50.862;4.360;2023-07-02T04:34:34;67.53;;;26.30;;
20124;SDS011;10223;50.862;4.360;2023-07-02T04:37:02;63.67;;;25.17;;
20124;SDS011;10223;50.862;4.360;2023-07-02T04:39:29;64.87;;;26.37;;
20124;SDS011;10223;50.862;4.360;2023-07-02T04:41:56;64.00;;;26.97;;
20124;SDS011;10223;50.862;4.360;2023-07-02T04:44:23;59.70;;;26.10;;
20124;SDS011;10223;50.862;4.360;2023-07-02T04:46:57;75.80;;;27.77;;
20124;SDS011;10223;50.862;4.360;2023-07-02T04:49:24;71.63;;;26.63;;
20124;SDS011;10223;50.862;4.360;2023-07-02T04:51:51;58.47;;;24.87;;
20124;SDS011;10223;50.862;4.360;2023-07-02T04:54:18;61.33;;;25.97;;
20124;SDS011;10223;50.862;4.360;2023-07-02T04:56:46;73.50;;;26.87;;
20124;SDS011;10223;50.862;4.360;2023-07-02T04:59:13;69.60;;;26.13;;
20124;SDS011;10223;50.862;4.360;2023-07-02T05:01:40;71.97;;;25.97;;
20124;SDS011;10223;50.862;4.360;2023-07-02T05:04:09;62.97;;;25.10;;
20124;SDS011;10223;50.862;4.360;2023-07-02T05:06:36;62.93;;;26.33;;
20124;SDS011;10223;50.862;4.360;2023-07-02T05:09:03;67.60;;;25.40;;
20124;SDS011;10223;50.862;4.360;2023-07-02T05:11:30;64.83;;;25.90;;
20124;SDS011;10223;50.862;4.360;2023-07-02T05:13:57;78.80;;;27.77;;
20124;SDS011;10223;50.862;4.360;2023-07-02T05:16:23;66.73;;;26.07;;
20124;SDS011;10223;50.862;4.360;2023-07-02T05:18:50;68.63;;;26.27;;
20124;SDS011;10223;50.862;4.360;2023-07-02T05:21:19;64.47;;;26.40;;
20124;SDS011;10223;50.862;4.360;2023-07-02T05:23:46;64.10;;;26.23;;
20124;SDS011;10223;50.862;4.360;2023-07-02T05:26:13;64.60;;;25.80;;
20124;SDS011;10223;50.862;4.360;2023-07-02T05:28:40;67.57;;;26.17;;
20124;SDS011;10223;50.862;4.360;2023-07-02T05:31:07;64.90;;;26.57;;
20124;SDS011;10223;50.862;4.360;2023-07-02T05:33:34;59.93;;;25.30;;
20124;SDS011;10223;50.862;4.360;2023-07-02T05:36:01;70.97;;;25.97;;
20124;SDS011;10223;50.862;4.360;2023-07-02T05:38:29;60.47;;;25.90;;
20124;SDS011;10223;50.862;4.360;2023-07-02T05:40:56;64.27;;;25.40;;
20124;SDS011;10223;50.862;4.360;2023-07-02T05:43:23;57.37;;;24.60;;
20124;SDS011;10223;50.862;4.360;2023-07-02T05:45:50;58.03;;;25.67;;
20124;SDS011;10223;50.862;4.360;2023-07-02T05:48:18;62.97;;;25.07;;
20124;SDS011;10223;50.862;4.360;2023-07-02T05:50:45;67.13;;;24.97;;
20124;SDS011;10223;50.862;4.360;2023-07-02T05:53:12;67.43;;;24.87;;
20124;SDS011;10223;50.862;4.360;2023-07-02T05:55:40;62.73;;;25.97;;
20124;SDS011;10223;50.862;4.360;2023-07-02T05:58:08;69.03;;;25.80;;
20124;SDS011;10223;50.862;4.360;2023-07-02T06:00:35;64.87;;;27.07;;
20124;SDS011;10223;50.862;4.360;2023-07-02T06:03:02;62.47;;;25.50;;
20124;SDS011;10223;50.862;4.360;2023-07-02T06:05:29;56.27;;;24.20;;
20124;SDS011;10223;50.862;4.360;2023-07-02T06:07:56;57.53;;;24.63;;
20124;SDS011;10223;50.862;4.360;2023-07-02T06:10:22;53.37;;;23.83;;
20124;SDS011;10223;50.862;4.360;2023-07-02T06:12:51;61.13;;;24.92;;
20124;SDS011;10223;50.862;4.360;2023-07-02T06:15:18;52.33;;;22.53;;
20124;SDS011;10223;50.862;4.360;2023-07-02T06:17:45;60.57;;;23.90;;
20124;SDS011;10223;50.862;4.360;2023-07-02T06:20:12;59.53;;;23.08;;
20124;SDS011;10223;50.862;4.360;2023-07-02T06:22:39;52.10;;;21.33;;
20124;SDS011;10223;50.862;4.360;2023-07-02T06:25:07;49.03;;;21.27;;
20124;SDS011;10223;50.862;4.360;2023-07-02T06:27:34;54.07;;;22.30;;
20124;SDS011;10223;50.862;4.360;2023-07-02T06:30:03;55.40;;;23.48;;
20124;SDS011;10223;50.862;4.360;2023-07-02T06:32:31;46.45;;;22.45;;
20124;SDS011;10223;50.862;4.360;2023-07-02T06:34:58;51.30;;;20.88;;
20124;SDS011;10223;50.862;4.360;2023-07-02T06:37:25;51.10;;;21.55;;
20124;SDS011;10223;50.862;4.360;2023-07-02T06:39:51;61.30;;;25.17;;
20124;SDS011;10223;50.862;4.360;2023-07-02T06:42:18;48.15;;;21.52;;
20124;SDS011;10223;50.862;4.360;2023-07-02T06:44:45;44.53;;;18.90;;
20124;SDS011;10223;50.862;4.360;2023-07-02T06:47:13;37.05;;;18.02;;
20124;SDS011;10223;50.862;4.360;2023-07-02T06:49:40;42.70;;;18.45;;
20124;SDS011;10223;50.862;4.360;2023-07-02T06:52:07;49.25;;;19.02;;
20124;SDS011;10223;50.862;4.360;2023-07-02T06:54:34;40.13;;;19.27;;
20124;SDS011;10223;50.862;4.360;2023-07-02T06:57:01;38.65;;;18.75;;
20124;SDS011;10223;50.862;4.360;2023-07-02T06:59:28;44.95;;;17.48;;
20124;SDS011;10223;50.862;4.360;2023-07-02T07:01:55;42.42;;;16.75;;
20124;SDS011;10223;50.862;4.360;2023-07-02T07:04:23;37.05;;;17.15;;
20124;SDS011;10223;50.862;4.360;2023-07-02T07:06:50;42.15;;;17.45;;
20124;SDS011;10223;50.862;4.360;2023-07-02T07:09:17;42.35;;;15.55;;
20124;SDS011;10223;50.862;4.360;2023-07-02T07:11:44;37.78;;;16.80;;
20124;SDS011;10223;50.862;4.360;2023-07-02T07:14:10;29.92;;;13.18;;
20124;SDS011;10223;50.862;4.360;2023-07-02T07:16:37;35.45;;;14.60;;
20124;SDS011;10223;50.862;4.360;2023-07-02T07:19:04;29.20;;;11.65;;
20124;SDS011;10223;50.862;4.360;2023-07-02T07:21:33;34.60;;;13.68;;
20124;SDS011;10223;50.862;4.360;2023-07-02T07:24:00;32.13;;;14.48;;
20124;SDS011;10223;50.862;4.360;2023-07-02T07:26:27;27.83;;;12.57;;
20124;SDS011;10223;50.862;4.360;2023-07-02T07:28:54;29.75;;;13.00;;
20124;SDS011;10223;50.862;4.360;2023-07-02T07:31:22;37.03;;;12.95;;
20124;SDS011;10223;50.862;4.360;2023-07-02T07:33:49;32.00;;;13.32;;
20124;SDS011;10223;50.862;4.360;2023-07-02T07:36:17;28.38;;;12.63;;
20124;SDS011;10223;50.862;4.360;2023-07-02T07:38:45;26.73;;;11.10;;
20124;SDS011;10223;50.862;4.360;2023-07-02T07:41:12;29.95;;;11.38;;
20124;SDS011;10223;50.862;4.360;2023-07-02T07:43:39;29.02;;;10.77;;
20124;SDS011;10223;50.862;4.360;2023-07-02T07:46:06;29.65;;;11.23;;
20124;SDS011;10223;50.862;4.360;2023-07-02T07:48:33;28.23;;;11.40;;
20124;SDS011;10223;50.862;4.360;2023-07-02T07:50:59;24.02;;;11.20;;
20124;SDS011;10223;50.862;4.360;2023-07-02T07:53:26;23.02;;;10.65;;
20124;SDS011;10223;50.862;4.360;2023-07-02T07:55:55;20.90;;;9.50;;
20124;SDS011;10223;50.862;4.360;2023-07-02T07:58:22;23.58;;;10.25;;
20124;SDS011;10223;50.862;4.360;2023-07-02T08:00:49;31.95;;;10.93;;
20124;SDS011;10223;50.862;4.360;2023-07-02T08:03:16;23.13;;;9.75;;
20124;SDS011;10223;50.862;4.360;2023-07-02T08:05:43;28.38;;;10.75;;
20124;SDS011;10223;50.862;4.360;2023-07-02T08:08:10;23.02;;;10.05;;
20124;SDS011;10223;50.862;4.360;2023-07-02T08:10:36;24.73;;;10.43;;
20124;SDS011;10223;50.862;4.360;2023-07-02T08:13:05;20.67;;;9.68;;
20124;SDS011;10223;50.862;4.360;2023-07-02T08:15:32;26.83;;;10.32;;
20124;SDS011;10223;50.862;4.360;2023-07-02T08:17:59;21.48;;;9.35;;
20124;SDS011;10223;50.862;4.360;2023-07-02T08:20:25;25.13;;;10.15;;
20124;SDS011;10223;50.862;4.360;2023-07-02T08:22:52;27.40;;;11.90;;
20124;SDS011;10223;50.862;4.360;2023-07-02T08:25:19;27.17;;;10.02;;
20124;SDS011;10223;50.862;4.360;2023-07-02T08:27:47;20.45;;;10.60;;
20124;SDS011;10223;50.862;4.360;2023-07-02T08:30:15;28.40;;;11.10;;
20124;SDS011;10223;50.862;4.360;2023-07-02T08:32:42;21.08;;;10.48;;
20124;SDS011;10223;50.862;4.360;2023-07-02T08:35:09;24.27;;;10.43;;
20124;SDS011;10223;50.862;4.360;2023-07-02T08:37:36;25.05;;;11.07;;
20124;SDS011;10223;50.862;4.360;2023-07-02T08:40:04;30.00;;;10.85;;
20124;SDS011;10223;50.862;4.360;2023-07-02T08:42:32;29.20;;;11.52;;
20124;SDS011;10223;50.862;4.360;2023-07-02T08:45:00;25.58;;;11.55;;
20124;SDS011;10223;50.862;4.360;2023-07-02T08:47:29;28.25;;;12.15;;
20124;SDS011;10223;50.862;4.360;2023-07-02T08:49:56;30.98;;;13.05;;
20124;SDS011;10223;50.862;4.360;2023-07-02T08:52:23;24.67;;;11.38;;
20124;SDS011;10223;50.862;4.360;2023-07-02T08:54:50;30.55;;;11.02;;
20124;SDS011;10223;50.862;4.360;2023-07-02T08:57:17;29.30;;;12.13;;
20124;SDS011;10223;50.862;4.360;2023-07-02T08:59:46;27.00;;;11.00;;
20124;SDS011;10223;50.862;4.360;2023-07-02T09:02:14;26.35;;;10.82;;
20124;SDS011;10223;50.862;4.360;2023-07-02T09:04:42;30.20;;;11.80;;
20124;SDS011;10223;50.862;4.360;2023-07-02T09:07:09;25.55;;;12.43;;
20124;SDS011;10223;50.862;4.360;2023-07-02T09:09:47;25.23;;;11.77;;
20124;SDS011;10223;50.862;4.360;2023-07-02T09:12:27;33.80;;;13.25;;
20124;SDS011;10223;50.862;4.360;2023-07-02T09:14:55;23.55;;;11.20;;
20124;SDS011;10223;50.862;4.360;2023-07-02T09:17:26;23.63;;;11.38;;
20124;SDS011;10223;50.862;4.360;2023-07-02T09:19:56;34.03;;;12.02;;
20124;SDS011;10223;50.862;4.360;2023-07-02T09:22:25;26.45;;;10.45;;
20124;SDS011;10223;50.862;4.360;2023-07-02T09:24:52;28.20;;;10.05;;
20124;SDS011;10223;50.862;4.360;2023-07-02T09:27:32;27.52;;;10.80;;
20124;SDS011;10223;50.862;4.360;2023-07-02T09:30:04;31.55;;;11.60;;
20124;SDS011;10223;50.862;4.360;2023-07-02T09:32:33;26.17;;;11.20;;
20124;SDS011;10223;50.862;4.360;2023-07-02T09:35:01;25.20;;;10.07;;
20124;SDS011;10223;50.862;4.360;2023-07-02T09:37:29;35.65;;;11.50;;
20124;SDS011;10223;50.862;4.360;2023-07-02T09:39:57;25.50;;;10.82;;
20124;SDS011;10223;50.862;4.360;2023-07-02T09:42:24;24.15;;;10.63;;
20124;SDS011;10223;50.862;4.360;2023-07-02T09:44:52;27.52;;;10.43;;
20124;SDS011;10223;50.862;4.360;2023-07-02T09:47:21;28.13;;;11.25;;
20124;SDS011;10223;50.862;4.360;2023-07-02T09:49:52;28.13;;;11.10;;
20124;SDS011;10223;50.862;4.360;2023-07-02T09:52:21;28.55;;;11.02;;
20124;SDS011;10223;50.862;4.360;2023-07-02T09:54:49;24.15;;;10.50;;
20124;SDS011;10223;50.862;4.360;2023-07-02T09:57:16;20.42;;;9.05;;
20124;SDS011;10223;50.862;4.360;2023-07-02T09:59:43;22.92;;;8.82;;
20124;SDS011;10223;50.862;4.360;2023-07-02T10:02:10;23.38;;;10.02;;
20124;SDS011;10223;50.862;4.360;2023-07-02T10:04:41;27.55;;;10.57;;
20124;SDS011;10223;50.862;4.360;2023-07-02T10:07:09;24.08;;;10.32;;
20124;SDS011;10223;50.862;4.360;2023-07-02T10:09:38;25.40;;;12.15;;
20124;SDS011;10223;50.862;4.360;2023-07-02T10:12:16;26.45;;;11.18;;
20124;SDS011;10223;50.862;4.360;2023-07-02T10:14:43;25.45;;;9.88;;
20124;SDS011;10223;50.862;4.360;2023-07-02T10:17:22;22.92;;;10.02;;
20124;SDS011;10223;50.862;4.360;2023-07-02T10:19:50;27.27;;;10.40;;
20124;SDS011;10223;50.862;4.360;2023-07-02T10:22:17;22.95;;;10.68;;
20124;SDS011;10223;50.862;4.360;2023-07-02T10:24:51;23.17;;;9.73;;
20124;SDS011;10223;50.862;4.360;2023-07-02T10:27:34;22.67;;;10.05;;
20124;SDS011;10223;50.862;4.360;2023-07-02T10:30:03;25.55;;;10.05;;
20124;SDS011;10223;50.862;4.360;2023-07-02T10:32:31;22.67;;;10.23;;
20124;SDS011;10223;50.862;4.360;2023-07-02T10:34:59;28.73;;;10.05;;
20124;SDS011;10223;50.862;4.360;2023-07-02T10:37:34;21.63;;;9.40;;
20124;SDS011;10223;50.862;4.360;2023-07-02T10:40:04;27.55;;;11.35;;
20124;SDS011;10223;50.862;4.360;2023-07-02T10:42:44;23.55;;;10.05;;
20124;SDS011;10223;50.862;4.360;2023-07-02T10:45:11;23.13;;;10.25;;
20124;SDS011;10223;50.862;4.360;2023-07-02T10:47:39;20.63;;;9.25;;
20124;SDS011;10223;50.862;4.360;2023-07-02T10:50:13;22.85;;;10.35;;
20124;SDS011;10223;50.862;4.360;2023-07-02T10:52:41;24.88;;;9.60;;
20124;SDS011;10223;50.862;4.360;2023-07-02T10:55:09;23.73;;;10.15;;
20124;SDS011;10223;50.862;4.360;2023-07-02T10:57:38;20.45;;;9.57;;
20124;SDS011;10223;50.862;4.360;2023-07-02T11:00:05;26.00;;;10.45;;
20124;SDS011;10223;50.862;4.360;2023-07-02T11:02:33;19.85;;;8.80;;
20124;SDS011;10223;50.862;4.360;2023-07-02T11:05:00;23.17;;;10.30;;
20124;SDS011;10223;50.862;4.360;2023-07-02T11:07:28;25.10;;;10.02;;
20124;SDS011;10223;50.862;4.360;2023-07-02T11:09:55;23.80;;;10.52;;
20124;SDS011;10223;50.862;4.360;2023-07-02T11:12:29;21.45;;;9.95;;
20124;SDS011;10223;50.862;4.360;2023-07-02T11:15:06;21.42;;;10.68;;
20124;SDS011;10223;50.862;4.360;2023-07-02T11:17:33;26.33;;;9.73;;
20124;SDS011;10223;50.862;4.360;2023-07-02T11:20:00;22.48;;;10.07;;
20124;SDS011;10223;50.862;4.360;2023-07-02T11:22:33;24.63;;;9.85;;
20124;SDS011;10223;50.862;4.360;2023-07-02T11:25:08;26.48;;;10.23;;
20124;SDS011;10223;50.862;4.360;2023-07-02T11:27:37;30.90;;;14.45;;
20124;SDS011;10223;50.862;4.360;2023-07-02T11:30:04;25.00;;;12.20;;
20124;SDS011;10223;50.862;4.360;2023-07-02T11:32:34;25.15;;;9.93;;
20124;SDS011;10223;50.862;4.360;2023-07-02T11:35:13;19.77;;;9.70;;
20124;SDS011;10223;50.862;4.360;2023-07-02T11:37:40;23.63;;;9.13;;
20124;SDS011;10223;50.862;4.360;2023-07-02T11:40:07;22.60;;;9.48;;
20124;SDS011;10223;50.862;4.360;2023-07-02T11:42:36;30.60;;;9.90;;
20124;SDS011;10223;50.862;4.360;2023-07-02T11:45:03;26.35;;;10.15;;
20124;SDS011;10223;50.862;4.360;2023-07-02T11:47:31;21.20;;;8.65;;
20124;SDS011;10223;50.862;4.360;2023-07-02T11:49:58;17.73;;;8.35;;
20124;SDS011;10223;50.862;4.360;2023-07-02T11:52:24;22.30;;;8.77;;
20124;SDS011;10223;50.862;4.360;2023-07-02T11:54:51;20.30;;;9.25;;
20124;SDS011;10223;50.862;4.360;2023-07-02T11:57:19;20.85;;;8.50;;
20124;SDS011;10223;50.862;4.360;2023-07-02T11:59:48;17.85;;;8.60;;
20124;SDS011;10223;50.862;4.360;2023-07-02T12:02:17;20.02;;;9.02;;
20124;SDS011;10223;50.862;4.360;2023-07-02T12:04:44;22.33;;;9.35;;
20124;SDS011;10223;50.862;4.360;2023-07-02T12:07:11;22.25;;;9.15;;
20124;SDS011;10223;50.862;4.360;2023-07-02T12:09:38;24.58;;;8.82;;
20124;SDS011;10223;50.862;4.360;2023-07-02T12:12:06;21.38;;;9.95;;
20124;SDS011;10223;50.862;4.360;2023-07-02T12:14:33;22.83;;;9.20;;
20124;SDS011;10223;50.862;4.360;2023-07-02T12:17:02;25.45;;;10.25;;
20124;SDS011;10223;50.862;4.360;2023-07-02T12:19:29;22.27;;;9.23;;
20124;SDS011;10223;50.862;4.360;2023-07-02T12:21:56;18.58;;;8.98;;
20124;SDS011;10223;50.862;4.360;2023-07-02T12:24:23;22.65;;;9.95;;
20124;SDS011;10223;50.862;4.360;2023-07-02T12:26:50;22.52;;;9.88;;
20124;SDS011;10223;50.862;4.360;2023-07-02T12:29:17;18.23;;;8.85;;
20124;SDS011;10223;50.862;4.360;2023-07-02T12:31:43;17.23;;;8.70;;
20124;SDS011;10223;50.862;4.360;2023-07-02T12:34:12;22.10;;;8.68;;
20124;SDS011;10223;50.862;4.360;2023-07-02T12:36:38;20.98;;;9.30;;
20124;SDS011;10223;50.862;4.360;2023-07-02T12:39:05;23.23;;;9.45;;
20124;SDS011;10223;50.862;4.360;2023-07-02T12:41:32;17.63;;;8.70;;
20124;SDS011;10223;50.862;4.360;2023-07-02T12:44:00;22.45;;;9.00;;
20124;SDS011;10223;50.862;4.360;2023-07-02T12:46:26;16.95;;;8.10;;
20124;SDS011;10223;50.862;4.360;2023-07-02T12:48:54;20.40;;;8.45;;
20124;SDS011;10223;50.862;4.360;2023-07-02T12:51:22;19.83;;;8.32;;
20124;SDS011;10223;50.862;4.360;2023-07-02T12:53:49;20.83;;;8.18;;
20124;SDS011;10223;50.862;4.360;2023-07-02T12:56:15;20.63;;;7.78;;
20124;SDS011;10223;50.862;4.360;2023-07-02T12:58:42;20.05;;;8.82;;
20124;SDS011;10223;50.862;4.360;2023-07-02T13:01:09;23.33;;;8.30;;
20124;SDS011;10223;50.862;4.360;2023-07-02T13:03:36;16.40;;;7.53;;
20124;SDS011;10223;50.862;4.360;2023-07-02T13:06:03;21.63;;;8.32;;
20124;SDS011;10223;50.862;4.360;2023-07-02T13:08:32;19.20;;;8.68;;
20124;SDS011;10223;50.862;4.360;2023-07-02T13:10:58;19.17;;;8.10;;
20124;SDS011;10223;50.862;4.360;2023-07-02T13:13:25;19.20;;;7.75;;
20124;SDS011;10223;50.862;4.360;2023-07-02T13:15:52;17.08;;;8.18;;
20124;SDS011;10223;50.862;4.360;2023-07-02T13:18:19;21.05;;;8.93;;
20124;SDS011;10223;50.862;4.360;2023-07-02T13:20:46;18.52;;;8.15;;
20124;SDS011;10223;50.862;4.360;2023-07-02T13:23:13;16.30;;;7.90;;
20124;SDS011;10223;50.862;4.360;2023-07-02T13:25:41;18.05;;;7.72;;
20124;SDS011;10223;50.862;4.360;2023-07-02T13:28:08;18.52;;;7.32;;
20124;SDS011;10223;50.862;4.360;2023-07-02T13:30:35;25.25;;;8.07;;
20124;SDS011;10223;50.862;4.360;2023-07-02T13:33:02;16.08;;;7.43;;
20124;SDS011;10223;50.862;4.360;2023-07-02T13:35:29;16.00;;;7.20;;
20124;SDS011;10223;50.862;4.360;2023-07-02T13:37:56;16.00;;;8.05;;
20124;SDS011;10223;50.862;4.360;2023-07-02T13:40:27;19.08;;;8.82;;
20124;SDS011;10223;50.862;4.360;2023-07-02T13:42:55;18.20;;;8.05;;
20124;SDS011;10223;50.862;4.360;2023-07-02T13:45:22;19.42;;;7.45;;
20124;SDS011;10223;50.862;4.360;2023-07-02T13:47:49;18.00;;;7.93;;
20124;SDS011;10223;50.862;4.360;2023-07-02T13:50:19;21.23;;;7.25;;
20124;SDS011;10223;50.862;4.360;2023-07-02T13:52:46;18.33;;;8.10;;
20124;SDS011;10223;50.862;4.360;2023-07-02T13:55:14;19.55;;;7.60;;
20124;SDS011;10223;50.862;4.360;2023-07-02T13:57:42;19.70;;;7.47;;
20124;SDS011;10223;50.862;4.360;2023-07-02T14:00:11;17.67;;;7.63;;
20124;SDS011;10223;50.862;4.360;2023-07-02T14:02:38;21.10;;;7.70;;
20124;SDS011;10223;50.862;4.360;2023-07-02T14:05:05;21.13;;;7.97;;
20124;SDS011;10223;50.862;4.360;2023-07-02T14:07:33;18.75;;;8.10;;
20124;SDS011;10223;50.862;4.360;2023-07-02T14:10:00;21.20;;;8.30;;
20124;SDS011;10223;50.862;4.360;2023-07-02T14:12:26;19.55;;;8.60;;
20124;SDS011;10223;50.862;4.360;2023-07-02T14:14:53;17.83;;;7.80;;
20124;SDS011;10223;50.862;4.360;2023-07-02T14:17:22;15.48;;;7.97;;
20124;SDS011;10223;50.862;4.360;2023-07-02T14:19:48;18.10;;;8.05;;
20124;SDS011;10223;50.862;4.360;2023-07-02T14:22:15;17.58;;;7.63;;
20124;SDS011;10223;50.862;4.360;2023-07-02T14:24:42;16.70;;;7.80;;
20124;SDS011;10223;50.862;4.360;2023-07-02T14:27:10;18.67;;;8.10;;
20124;SDS011;10223;50.862;4.360;2023-07-02T14:29:36;19.60;;;8.07;;